Decoded Metar for UKWW (VINNITSA in UKRAINE) (IATA:N/A) | Meteo·Mobile Aviation Weather
aviador You're here:

UKWW Decoded Metar

VINNITSA in UKRAINE
Report Time2019-12-12 12:30:00
UTC Time2019-12-12 13:01:46
Flight Rules mvfr MVFR
Wind130° at 10 kt
W.Decomp.*RWY 13: 10.0 kt HW 0.5 kt LCW
Visibility9999 m
Phenomena:N/A
Clouds:Overcast 012 Hf
Expected CloudBase > 800 ft AGL from Temp-Dew spread
Ceiling1,200 ft
Temp03°C (ISA -10)
Dew Point01°C (87% RH)
AAT-2.4°C
QNH1014 hPa
Density Alt-203 ft
Elevation960 ft
Report Wrong Elevation
Raw Report
METAR UKWW 121230Z 13005MPS 9999 OVC012 03/01 Q1014
NOSIG=

Extra information for UKWW:More info

Social comments